TimeEDT,TemperatureF,Dew PointF,Humidity,Sea Level PressureIn,VisibilityMPH,Wind Direction,Wind SpeedMPH,Gust SpeedMPH,PrecipitationIn,Events,Conditions,WindDirDegrees,DateUTC
12:15 AM,71.6,66.2,83,30.01,10.0,Calm,Calm,-,0.00,,Scattered Clouds,0,2013-06-15 04:15:00
12:35 AM,71.6,66.2,83,30.01,10.0,Calm,Calm,-,0.00,,Partly Cloudy,0,2013-06-15 04:35:00
12:55 AM,71.6,66.2,83,30.01,10.0,Calm,Calm,-,0.00,,Clear,0,2013-06-15 04:55:00
1:15 AM,71.6,66.2,83,30.02,10.0,Calm,Calm,-,0.00,,Clear,0,2013-06-15 05:15:00
1:35 AM,69.8,66.2,88,30.02,10.0,Calm,Calm,-,0.00,,Clear,0,2013-06-15 05:35:00
1:55 AM,69.8,66.2,88,30.02,10.0,Calm,Calm,-,0.00,,Clear,0,2013-06-15 05:55:00
2:15 AM,71.6,66.2,83,30.02,10.0,Calm,Calm,-,0.00,,Clear,0,2013-06-15 06:15:00
2:35 AM,71.6,68.0,88,30.02,10.0,Calm,Calm,-,0.00,,Clear,0,2013-06-15 06:35:00
2:55 AM,69.8,68.0,94,30.02,10.0,Calm,Calm,-,0.00,,Clear,0,2013-06-15 06:55:00
3:15 AM,69.8,68.0,94,30.02,10.0,North,3.5,-,0.00,,Clear,10,2013-06-15 07:15:00
3:35 AM,73.4,68.0,83,30.01,10.0,North,12.7,-,0.00,,Clear,360,2013-06-15 07:35:00
3:55 AM,73.4,68.0,83,30.01,10.0,North,4.6,-,0.00,,Clear,10,2013-06-15 07:55:00
4:15 AM,73.4,68.0,83,30.02,10.0,NE,3.5,-,0.00,,Clear,40,2013-06-15 08:15:00
4:35 AM,75.2,68.0,78,30.03,10.0,NNE,3.5,-,0.00,,Clear,20,2013-06-15 08:35:00
4:55 AM,73.4,66.2,78,30.02,10.0,NE,4.6,-,0.00,,Clear,40,2013-06-15 08:55:00
5:15 AM,75.2,66.2,73,30.03,10.0,NNE,4.6,-,0.00,,Clear,30,2013-06-15 09:15:00
5:35 AM,75.2,64.4,69,30.03,10.0,NNE,5.8,-,0.00,,Clear,30,2013-06-15 09:35:00
5:55 AM,75.2,64.4,69,30.03,10.0,NNE,4.6,-,0.00,,Clear,20,2013-06-15 09:55:00
6:15 AM,73.4,64.4,73,30.04,10.0,NE,4.6,-,0.00,,Clear,50,2013-06-15 10:15:00
6:35 AM,75.2,64.4,69,30.04,10.0,NE,4.6,-,0.00,,Clear,50,2013-06-15 10:35:00
6:50 AM,75.2,64.4,69,30.05,10.0,ENE,5.8,-,N/A,,Partly Cloudy,60,2013-06-15 10:50:00
7:50 AM,77.0,66.2,69,30.08,10.0,ENE,5.8,-,N/A,,Scattered Clouds,70,2013-06-15 11:50:00
8:50 AM,78.8,64.4,61,30.11,10.0,ENE,9.2,-,N/A,,Scattered Clouds,70,2013-06-15 12:50:00
9:50 AM,78.8,62.6,57,30.13,10.0,East,8.1,-,N/A,,Scattered Clouds,80,2013-06-15 13:50:00
10:55 AM,80.6,62.6,54,30.13,10.0,East,8.1,-,N/A,,Scattered Clouds,80,2013-06-15 14:55:00
11:55 AM,80.6,64.4,58,30.14,10.0,ENE,10.4,17.3,N/A,,Scattered Clouds,70,2013-06-15 15:55:00
12:55 PM,80.6,64.4,58,30.14,10.0,ENE,6.9,-,N/A,,Partly Cloudy,60,2013-06-15 16:55:00
1:50 PM,80.6,62.6,54,30.14,10.0,NE,10.4,-,N/A,,Partly Cloudy,50,2013-06-15 17:50:00
2:50 PM,80.6,60.8,51,30.12,10.0,ENE,6.9,-,N/A,,Clear,70,2013-06-15 18:50:00
3:50 PM,80.6,60.8,51,30.12,10.0,ENE,6.9,-,N/A,,Clear,70,2013-06-15 19:50:00
4:50 PM,78.8,60.8,54,30.12,10.0,East,5.8,-,N/A,,Clear,90,2013-06-15 20:50:00
5:50 PM,80.6,57.2,45,30.12,10.0,East,4.6,-,N/A,,Clear,90,2013-06-15 21:50:00
6:50 PM,78.8,57.2,47,30.12,10.0,East,5.8,-,N/A,,Clear,90,2013-06-15 22:50:00
7:50 PM,77.0,59.0,54,30.12,10.0,East,4.6,-,N/A,,Clear,90,2013-06-15 23:50:00
9:15 PM,71.6,60.8,69,30.12,10.0,Calm,Calm,-,0.00,,Clear,0,2013-06-16 01:15:00
9:35 PM,71.6,60.8,69,30.13,10.0,Calm,Calm,-,0.00,,Clear,0,2013-06-16 01:35:00
9:55 PM,71.6,62.6,73,30.13,10.0,Calm,Calm,-,0.00,,Clear,0,2013-06-16 01:55:00
10:15 PM,73.4,62.6,69,30.13,10.0,SE,3.5,-,0.00,,Clear,130,2013-06-16 02:15:00
10:35 PM,75.2,64.4,69,30.13,10.0,SE,3.5,-,0.00,,Clear,130,2013-06-16 02:35:00
10:55 PM,75.2,64.4,69,30.14,10.0,Calm,Calm,-,0.00,,Clear,0,2013-06-16 02:55:00
11:15 PM,75.2,64.4,69,30.14,10.0,SE,3.5,-,0.00,,Clear,130,2013-06-16 03:15:00
11:35 PM,75.2,64.4,69,30.14,10.0,Calm,Calm,-,0.00,,Clear,0,2013-06-16 03:35:00
11:55 PM,75.2,64.4,69,30.14,10.0,SE,3.5,-,0.00,,Clear,130,2013-06-16 03:55:00